sensor_id;sensor_type;location;lat;lon;timestamp;temperature;humidity
16625;DHT22;8426;48.496;9.098;2023-08-07T00:02:51;11.10;99.90
16625;DHT22;8426;48.496;9.098;2023-08-07T00:07:55;11.10;99.90
16625;DHT22;8426;48.496;9.098;2023-08-07T00:12:58;11.10;99.90
16625;DHT22;8426;48.496;9.098;2023-08-07T00:18:03;11.10;99.90
16625;DHT22;8426;48.496;9.098;2023-08-07T00:23:06;11.10;99.90
16625;DHT22;8426;48.496;9.098;2023-08-07T00:28:09;11.00;99.90
16625;DHT22;8426;48.496;9.098;2023-08-07T00:33:14;11.00;99.90
16625;DHT22;8426;48.496;9.098;2023-08-07T00:38:18;10.90;99.90
16625;DHT22;8426;48.496;9.098;2023-08-07T00:43:21;10.90;99.90
16625;DHT22;8426;48.496;9.098;2023-08-07T00:48:26;10.90;99.90
16625;DHT22;8426;48.496;9.098;2023-08-07T00:53:29;10.90;99.90
16625;DHT22;8426;48.496;9.098;2023-08-07T00:58:34;10.80;99.90
16625;DHT22;8426;48.496;9.098;2023-08-07T01:03:39;10.80;99.90
16625;DHT22;8426;48.496;9.098;2023-08-07T01:08:42;10.80;99.90
16625;DHT22;8426;48.496;9.098;2023-08-07T01:13:51;10.80;99.90
16625;DHT22;8426;48.496;9.098;2023-08-07T01:19:00;10.70;99.90
16625;DHT22;8426;48.496;9.098;2023-08-07T01:24:06;10.60;99.90
16625;DHT22;8426;48.496;9.098;2023-08-07T01:29:14;10.60;99.90
16625;DHT22;8426;48.496;9.098;2023-08-07T01:34:22;10.50;99.90
16625;DHT22;8426;48.496;9.098;2023-08-07T01:39:29;10.40;99.90
16625;DHT22;8426;48.496;9.098;2023-08-07T01:44:33;10.40;99.90
16625;DHT22;8426;48.496;9.098;2023-08-07T01:49:36;10.30;99.90
16625;DHT22;8426;48.496;9.098;2023-08-07T01:54:42;10.30;99.90
16625;DHT22;8426;48.496;9.098;2023-08-07T01:59:45;10.30;99.90
16625;DHT22;8426;48.496;9.098;2023-08-07T02:04:48;10.30;99.90
16625;DHT22;8426;48.496;9.098;2023-08-07T02:09:53;10.20;99.90
16625;DHT22;8426;48.496;9.098;2023-08-07T02:14:56;10.20;99.90
16625;DHT22;8426;48.496;9.098;2023-08-07T02:20:00;10.10;99.90
16625;DHT22;8426;48.496;9.098;2023-08-07T02:25:05;10.00;99.90
16625;DHT22;8426;48.496;9.098;2023-08-07T02:30:09;10.10;99.90
16625;DHT22;8426;48.496;9.098;2023-08-07T02:35:13;10.40;99.90
16625;DHT22;8426;48.496;9.098;2023-08-07T02:40:17;10.50;99.90
16625;DHT22;8426;48.496;9.098;2023-08-07T02:45:21;10.50;99.90
16625;DHT22;8426;48.496;9.098;2023-08-07T02:50:24;10.50;99.90
16625;DHT22;8426;48.496;9.098;2023-08-07T05:48:26;10.90;99.90
16625;DHT22;8426;48.496;9.098;2023-08-07T05:53:30;11.00;99.90
16625;DHT22;8426;48.496;9.098;2023-08-07T05:58:34;11.50;99.90
16625;DHT22;8426;48.496;9.098;2023-08-07T06:03:38;12.00;99.90
16625;DHT22;8426;48.496;9.098;2023-08-07T06:20:22;12.10;99.90
16625;DHT22;8426;48.496;9.098;2023-08-07T06:45:35;12.00;99.90
16625;DHT22;8426;48.496;9.098;2023-08-07T07:01:27;12.70;99.90
16625;DHT22;8426;48.496;9.098;2023-08-07T07:09:45;12.90;99.90
16625;DHT22;8426;48.496;9.098;2023-08-07T07:14:49;13.20;99.90
16625;DHT22;8426;48.496;9.098;2023-08-07T07:19:52;15.10;99.90
16625;DHT22;8426;48.496;9.098;2023-08-07T07:24:57;15.90;99.90
16625;DHT22;8426;48.496;9.098;2023-08-07T07:30:00;15.20;99.90
16625;DHT22;8426;48.496;9.098;2023-08-07T07:35:04;14.50;99.90
16625;DHT22;8426;48.496;9.098;2023-08-07T07:40:10;14.10;99.90
16625;DHT22;8426;48.496;9.098;2023-08-07T07:45:14;14.60;99.90
16625;DHT22;8426;48.496;9.098;2023-08-07T07:50:17;15.10;99.90
16625;DHT22;8426;48.496;9.098;2023-08-07T07:55:24;16.20;99.90
16625;DHT22;8426;48.496;9.098;2023-08-07T08:00:27;15.40;99.90
16625;DHT22;8426;48.496;9.098;2023-08-07T08:05:31;15.10;99.90
16625;DHT22;8426;48.496;9.098;2023-08-07T08:10:36;17.90;99.90
16625;DHT22;8426;48.496;9.098;2023-08-07T08:15:39;22.40;99.90
16625;DHT22;8426;48.496;9.098;2023-08-07T08:20:43;21.50;99.90
16625;DHT22;8426;48.496;9.098;2023-08-07T08:25:48;19.20;99.90
16625;DHT22;8426;48.496;9.098;2023-08-07T08:30:51;20.90;99.90
16625;DHT22;8426;48.496;9.098;2023-08-07T08:35:55;21.60;99.90
16625;DHT22;8426;48.496;9.098;2023-08-07T08:41:02;20.40;99.90
16625;DHT22;8426;48.496;9.098;2023-08-07T08:46:06;22.60;99.90
16625;DHT22;8426;48.496;9.098;2023-08-07T08:51:14;22.30;99.90
16625;DHT22;8426;48.496;9.098;2023-08-07T08:56:22;22.40;99.90
16625;DHT22;8426;48.496;9.098;2023-08-07T09:01:29;23.00;99.90
16625;DHT22;8426;48.496;9.098;2023-08-07T09:06:34;21.30;99.90
16625;DHT22;8426;48.496;9.098;2023-08-07T09:11:39;23.10;99.90
16625;DHT22;8426;48.496;9.098;2023-08-07T09:16:44;23.80;99.90
16625;DHT22;8426;48.496;9.098;2023-08-07T09:21:49;24.10;99.90
16625;DHT22;8426;48.496;9.098;2023-08-07T09:26:55;23.40;99.90
16625;DHT22;8426;48.496;9.098;2023-08-07T09:32:06;21.80;99.90
16625;DHT22;8426;48.496;9.098;2023-08-07T09:37:11;24.30;99.90
16625;DHT22;8426;48.496;9.098;2023-08-07T09:42:16;22.50;99.90
16625;DHT22;8426;48.496;9.098;2023-08-07T09:47:19;23.50;99.90
16625;DHT22;8426;48.496;9.098;2023-08-07T09:52:24;24.10;99.90
16625;DHT22;8426;48.496;9.098;2023-08-07T09:57:30;24.40;99.30
16625;DHT22;8426;48.496;9.098;2023-08-07T10:02:33;24.40;98.70
16625;DHT22;8426;48.496;9.098;2023-08-07T10:07:37;21.70;99.90
16625;DHT22;8426;48.496;9.098;2023-08-07T10:12:42;21.60;99.90
16625;DHT22;8426;48.496;9.098;2023-08-07T10:17:48;22.10;99.90
16625;DHT22;8426;48.496;9.098;2023-08-07T10:22:52;22.80;99.90
16625;DHT22;8426;48.496;9.098;2023-08-07T10:27:58;23.30;99.90
16625;DHT22;8426;48.496;9.098;2023-08-07T10:33:02;22.80;99.90
16625;DHT22;8426;48.496;9.098;2023-08-07T10:38:08;21.80;99.90
16625;DHT22;8426;48.496;9.098;2023-08-07T10:43:17;20.90;99.90
16625;DHT22;8426;48.496;9.098;2023-08-07T10:48:21;20.80;99.90
16625;DHT22;8426;48.496;9.098;2023-08-07T10:53:29;19.90;99.90
16625;DHT22;8426;48.496;9.098;2023-08-07T10:58:35;19.20;99.90
16625;DHT22;8426;48.496;9.098;2023-08-07T11:03:40;19.20;99.90
16625;DHT22;8426;48.496;9.098;2023-08-07T11:08:43;19.00;99.90
16625;DHT22;8426;48.496;9.098;2023-08-07T11:13:48;18.80;99.90
16625;DHT22;8426;48.496;9.098;2023-08-07T11:18:51;20.00;99.90
16625;DHT22;8426;48.496;9.098;2023-08-07T11:23:56;21.00;99.90
16625;DHT22;8426;48.496;9.098;2023-08-07T11:29:01;20.70;99.90
16625;DHT22;8426;48.496;9.098;2023-08-07T11:34:04;20.00;99.90
16625;DHT22;8426;48.496;9.098;2023-08-07T11:39:07;19.40;99.90
16625;DHT22;8426;48.496;9.098;2023-08-07T11:44:12;18.60;99.90
16625;DHT22;8426;48.496;9.098;2023-08-07T11:49:15;18.10;99.90
16625;DHT22;8426;48.496;9.098;2023-08-07T11:54:19;17.70;99.90
16625;DHT22;8426;48.496;9.098;2023-08-07T11:59:24;18.80;99.90
16625;DHT22;8426;48.496;9.098;2023-08-07T12:04:31;19.70;99.90
16625;DHT22;8426;48.496;9.098;2023-08-07T12:09:38;19.00;99.90
16625;DHT22;8426;48.496;9.098;2023-08-07T12:14:43;17.80;99.90
16625;DHT22;8426;48.496;9.098;2023-08-07T12:19:46;16.70;99.90
16625;DHT22;8426;48.496;9.098;2023-08-07T12:24:49;16.60;99.90
16625;DHT22;8426;48.496;9.098;2023-08-07T12:29:54;16.50;99.90
16625;DHT22;8426;48.496;9.098;2023-08-07T12:34:58;16.30;99.90
16625;DHT22;8426;48.496;9.098;2023-08-07T12:40:04;16.30;99.90
16625;DHT22;8426;48.496;9.098;2023-08-07T12:45:12;17.00;99.90
16625;DHT22;8426;48.496;9.098;2023-08-07T12:50:17;17.80;99.90
16625;DHT22;8426;48.496;9.098;2023-08-07T12:55:20;18.50;99.90
16625;DHT22;8426;48.496;9.098;2023-08-07T13:00:25;18.50;99.90
16625;DHT22;8426;48.496;9.098;2023-08-07T13:05:29;18.30;99.90
16625;DHT22;8426;48.496;9.098;2023-08-07T13:10:33;18.60;99.90
16625;DHT22;8426;48.496;9.098;2023-08-07T13:15:38;18.00;99.90
16625;DHT22;8426;48.496;9.098;2023-08-07T13:20:41;17.50;99.90
16625;DHT22;8426;48.496;9.098;2023-08-07T13:25:45;17.90;99.90
16625;DHT22;8426;48.496;9.098;2023-08-07T13:30:50;18.60;99.90
16625;DHT22;8426;48.496;9.098;2023-08-07T13:35:56;19.00;99.90
16625;DHT22;8426;48.496;9.098;2023-08-07T13:40:59;18.30;99.90
16625;DHT22;8426;48.496;9.098;2023-08-07T13:46:04;17.90;99.90
16625;DHT22;8426;48.496;9.098;2023-08-07T13:51:08;17.90;99.90
16625;DHT22;8426;48.496;9.098;2023-08-07T13:56:12;18.00;99.90
16625;DHT22;8426;48.496;9.098;2023-08-07T14:01:17;18.10;99.90
16625;DHT22;8426;48.496;9.098;2023-08-07T14:06:20;18.60;99.90
16625;DHT22;8426;48.496;9.098;2023-08-07T14:11:24;19.70;99.90
16625;DHT22;8426;48.496;9.098;2023-08-07T14:16:33;20.60;99.90
16625;DHT22;8426;48.496;9.098;2023-08-07T14:21:39;20.30;99.90
16625;DHT22;8426;48.496;9.098;2023-08-07T14:26:42;19.20;99.90
16625;DHT22;8426;48.496;9.098;2023-08-07T14:31:47;19.40;99.90
16625;DHT22;8426;48.496;9.098;2023-08-07T14:36:51;20.40;99.90
16625;DHT22;8426;48.496;9.098;2023-08-07T14:41:56;20.40;99.90
16625;DHT22;8426;48.496;9.098;2023-08-07T14:47:02;20.10;99.90
16625;DHT22;8426;48.496;9.098;2023-08-07T14:52:05;19.60;99.90
16625;DHT22;8426;48.496;9.098;2023-08-07T14:57:09;18.50;99.90
16625;DHT22;8426;48.496;9.098;2023-08-07T15:02:14;17.80;99.90
16625;DHT22;8426;48.496;9.098;2023-08-07T15:07:17;17.40;99.90
16625;DHT22;8426;48.496;9.098;2023-08-07T15:12:21;17.30;99.90
16625;DHT22;8426;48.496;9.098;2023-08-07T15:17:29;17.20;99.90
16625;DHT22;8426;48.496;9.098;2023-08-07T15:22:33;17.60;99.90
16625;DHT22;8426;48.496;9.098;2023-08-07T15:27:36;17.80;99.90
16625;DHT22;8426;48.496;9.098;2023-08-07T15:32:42;18.00;99.90
16625;DHT22;8426;48.496;9.098;2023-08-07T15:37:46;17.90;99.90
16625;DHT22;8426;48.496;9.098;2023-08-07T15:42:49;18.10;99.90
16625;DHT22;8426;48.496;9.098;2023-08-07T15:47:54;18.60;99.90
16625;DHT22;8426;48.496;9.098;2023-08-07T15:52:57;19.00;99.90
16625;DHT22;8426;48.496;9.098;2023-08-07T15:58:01;19.10;99.90
16625;DHT22;8426;48.496;9.098;2023-08-07T16:03:06;19.60;99.90
16625;DHT22;8426;48.496;9.098;2023-08-07T16:08:10;20.00;99.90
16625;DHT22;8426;48.496;9.098;2023-08-07T16:13:13;19.00;99.90
16625;DHT22;8426;48.496;9.098;2023-08-07T16:18:18;18.30;99.90
16625;DHT22;8426;48.496;9.098;2023-08-07T16:23:21;18.00;99.90
16625;DHT22;8426;48.496;9.098;2023-08-07T16:28:25;18.30;99.90
16625;DHT22;8426;48.496;9.098;2023-08-07T16:33:30;18.40;99.90
16625;DHT22;8426;48.496;9.098;2023-08-07T16:38:33;18.10;99.90
16625;DHT22;8426;48.496;9.098;2023-08-07T16:43:36;17.90;99.90
16625;DHT22;8426;48.496;9.098;2023-08-07T16:48:41;17.90;99.90
16625;DHT22;8426;48.496;9.098;2023-08-07T16:53:45;18.00;99.90
16625;DHT22;8426;48.496;9.098;2023-08-07T16:58:50;18.10;99.90
16625;DHT22;8426;48.496;9.098;2023-08-07T17:03:55;18.20;99.90
16625;DHT22;8426;48.496;9.098;2023-08-07T17:08:58;18.10;99.90
16625;DHT22;8426;48.496;9.098;2023-08-07T17:14:02;17.90;99.90
16625;DHT22;8426;48.496;9.098;2023-08-07T17:19:06;17.90;99.90
16625;DHT22;8426;48.496;9.098;2023-08-07T17:24:10;17.60;99.90
16625;DHT22;8426;48.496;9.098;2023-08-07T17:29:13;17.20;99.90
16625;DHT22;8426;48.496;9.098;2023-08-07T17:34:18;16.90;99.90
16625;DHT22;8426;48.496;9.098;2023-08-07T17:39:21;16.70;99.90
16625;DHT22;8426;48.496;9.098;2023-08-07T17:44:24;16.60;99.90
16625;DHT22;8426;48.496;9.098;2023-08-07T17:49:29;16.60;99.90
16625;DHT22;8426;48.496;9.098;2023-08-07T17:54:33;16.80;99.90
16625;DHT22;8426;48.496;9.098;2023-08-07T17:59:38;17.00;99.90
16625;DHT22;8426;48.496;9.098;2023-08-07T18:04:43;17.10;99.90
16625;DHT22;8426;48.496;9.098;2023-08-07T18:09:46;17.10;99.90
16625;DHT22;8426;48.496;9.098;2023-08-07T18:14:50;17.00;99.90
16625;DHT22;8426;48.496;9.098;2023-08-07T18:19:55;16.70;99.90
16625;DHT22;8426;48.496;9.098;2023-08-07T18:24:58;16.40;99.90
16625;DHT22;8426;48.496;9.098;2023-08-07T18:30:02;16.20;99.90
16625;DHT22;8426;48.496;9.098;2023-08-07T18:35:08;15.90;99.90
16625;DHT22;8426;48.496;9.098;2023-08-07T18:40:11;15.60;99.90
16625;DHT22;8426;48.496;9.098;2023-08-07T18:45:14;15.30;99.90
16625;DHT22;8426;48.496;9.098;2023-08-07T18:50:20;14.90;99.90
16625;DHT22;8426;48.496;9.098;2023-08-07T18:55:23;14.60;99.90
16625;DHT22;8426;48.496;9.098;2023-08-07T19:00:27;14.30;99.90
16625;DHT22;8426;48.496;9.098;2023-08-07T19:05:31;14.00;99.90
16625;DHT22;8426;48.496;9.098;2023-08-07T19:10:35;13.80;99.90
16625;DHT22;8426;48.496;9.098;2023-08-07T19:15:38;13.70;99.90
16625;DHT22;8426;48.496;9.098;2023-08-07T19:20:43;13.60;99.90
16625;DHT22;8426;48.496;9.098;2023-08-07T19:25:46;13.60;99.90
16625;DHT22;8426;48.496;9.098;2023-08-07T19:30:56;13.60;99.90
16625;DHT22;8426;48.496;9.098;2023-08-07T19:36:08;13.60;99.90
16625;DHT22;8426;48.496;9.098;2023-08-07T19:41:12;13.60;99.90
16625;DHT22;8426;48.496;9.098;2023-08-07T19:46:15;13.60;99.90
16625;DHT22;8426;48.496;9.098;2023-08-07T19:51:20;13.40;99.90
16625;DHT22;8426;48.496;9.098;2023-08-07T19:56:23;13.00;99.90
16625;DHT22;8426;48.496;9.098;2023-08-07T20:01:27;12.80;99.90
16625;DHT22;8426;48.496;9.098;2023-08-07T20:06:31;12.60;99.90
16625;DHT22;8426;48.496;9.098;2023-08-07T20:11:35;12.50;99.90
16625;DHT22;8426;48.496;9.098;2023-08-07T20:16:39;12.40;99.90
16625;DHT22;8426;48.496;9.098;2023-08-07T20:21:44;12.30;99.90
16625;DHT22;8426;48.496;9.098;2023-08-07T20:26:47;12.20;99.90
16625;DHT22;8426;48.496;9.098;2023-08-07T20:31:52;12.40;99.90
16625;DHT22;8426;48.496;9.098;2023-08-07T20:36:57;12.70;99.90
16625;DHT22;8426;48.496;9.098;2023-08-07T20:42:00;12.80;99.90
16625;DHT22;8426;48.496;9.098;2023-08-07T20:47:04;12.90;99.90
16625;DHT22;8426;48.496;9.098;2023-08-07T20:52:09;12.80;99.90
16625;DHT22;8426;48.496;9.098;2023-08-07T20:57:12;12.60;99.90
16625;DHT22;8426;48.496;9.098;2023-08-07T21:02:15;12.60;99.90
16625;DHT22;8426;48.496;9.098;2023-08-07T21:07:22;12.60;99.90
16625;DHT22;8426;48.496;9.098;2023-08-07T21:12:26;12.70;99.90
16625;DHT22;8426;48.496;9.098;2023-08-07T21:17:29;12.80;99.90
16625;DHT22;8426;48.496;9.098;2023-08-07T21:22:34;12.80;99.90
16625;DHT22;8426;48.496;9.098;2023-08-07T21:27:37;12.70;99.90
16625;DHT22;8426;48.496;9.098;2023-08-07T21:32:41;12.60;99.90
16625;DHT22;8426;48.496;9.098;2023-08-07T21:37:47;12.40;99.90
16625;DHT22;8426;48.496;9.098;2023-08-07T21:42:50;12.20;99.90
16625;DHT22;8426;48.496;9.098;2023-08-07T21:47:54;11.90;99.90
16625;DHT22;8426;48.496;9.098;2023-08-07T21:52:59;11.80;99.90
16625;DHT22;8426;48.496;9.098;2023-08-07T21:58:02;11.90;99.90
16625;DHT22;8426;48.496;9.098;2023-08-07T22:03:06;11.90;99.90
16625;DHT22;8426;48.496;9.098;2023-08-07T22:08:10;11.90;99.90
16625;DHT22;8426;48.496;9.098;2023-08-07T22:13:14;12.00;99.90
16625;DHT22;8426;48.496;9.098;2023-08-07T22:18:17;12.10;99.90
16625;DHT22;8426;48.496;9.098;2023-08-07T22:23:22;12.10;99.90
16625;DHT22;8426;48.496;9.098;2023-08-07T22:28:26;12.00;99.90
16625;DHT22;8426;48.496;9.098;2023-08-07T22:33:29;12.00;99.90
16625;DHT22;8426;48.496;9.098;2023-08-07T22:38:34;12.20;99.90
16625;DHT22;8426;48.496;9.098;2023-08-07T22:43:37;12.10;99.90
16625;DHT22;8426;48.496;9.098;2023-08-07T22:48:40;12.00;99.90
16625;DHT22;8426;48.496;9.098;2023-08-07T22:53:45;11.90;99.90
16625;DHT22;8426;48.496;9.098;2023-08-07T22:58:51;11.70;99.90
16625;DHT22;8426;48.496;9.098;2023-08-07T23:03:54;11.50;99.90
16625;DHT22;8426;48.496;9.098;2023-08-07T23:08:59;11.40;99.90
16625;DHT22;8426;48.496;9.098;2023-08-07T23:14:02;11.40;99.90
16625;DHT22;8426;48.496;9.098;2023-08-07T23:19:06;11.70;99.90
16625;DHT22;8426;48.496;9.098;2023-08-07T23:24:11;11.80;99.90
16625;DHT22;8426;48.496;9.098;2023-08-07T23:29:14;11.80;99.90
16625;DHT22;8426;48.496;9.098;2023-08-07T23:34:17;11.80;99.90
16625;DHT22;8426;48.496;9.098;2023-08-07T23:39:22;11.60;99.90
16625;DHT22;8426;48.496;9.098;2023-08-07T23:44:25;11.40;99.90
16625;DHT22;8426;48.496;9.098;2023-08-07T23:49:28;11.30;99.90
16625;DHT22;8426;48.496;9.098;2023-08-07T23:54:33;11.10;99.90
16625;DHT22;8426;48.496;9.098;2023-08-07T23:59:36;10.90;99.90
